Time;durP1;ratioP1;P1;durP2;ratioP2;P2;SDS_P1;SDS_P2;PMS_P1;PMS_P2;Temp;Humidity;BMP_temperature;BMP_pressure;BME280_temperature;BME280_humidity;BME280_pressure;Samples;Min_cycle;Max_cycle;Signal;HPM_P1;HPM_P2
2023/07/23 00:00:08;;;;;;;9.65;5.43;;;;;;;19.73;62.49;99982.19;5007270;28;20465;-73
2023/07/23 00:02:41;;;;;;;7.75;4.97;;;;;;;19.76;62.85;99995.34;5006693;28;20281;-74
2023/07/23 00:05:09;;;;;;;8.63;5.25;;;;;;;19.75;63.34;99993.66;4999009;28;20099;-74
2023/07/23 00:07:37;;;;;;;7.90;5.07;;;;;;;19.76;62.81;99986.44;5011755;28;20478;-74
2023/07/23 00:10:09;;;;;;;5.55;4.15;;;;;;;19.76;62.22;99975.69;5010359;28;20050;-75
2023/07/23 00:12:38;;;;;;;6.95;4.85;;;;;;;19.79;63.39;99987.00;4986612;28;20057;-75
2023/07/23 00:15:08;;;;;;;7.13;4.90;;;;;;;19.83;63.58;99983.03;5009215;28;20069;-75
2023/07/23 00:17:37;;;;;;;6.72;5.13;;;;;;;19.84;63.07;99981.19;5012899;28;20414;-75
2023/07/23 00:20:06;;;;;;;6.50;4.90;;;;;;;19.85;63.25;99981.06;5014437;28;20049;-75
2023/07/23 00:22:34;;;;;;;10.25;5.55;;;;;;;19.83;64.21;99980.34;5004249;28;20108;-75
2023/07/23 00:25:02;;;;;;;7.78;4.80;;;;;;;19.83;64.89;99972.28;5030736;28;20053;-75
2023/07/23 00:27:30;;;;;;;11.40;5.13;;;;;;;19.88;62.38;99980.78;4994172;28;20048;-74
2023/07/23 00:30:03;;;;;;;6.80;4.50;;;;;;;19.86;62.03;99985.44;5024242;28;20045;-74
2023/07/23 00:32:31;;;;;;;8.65;4.40;;;;;;;19.76;61.04;99962.25;4989234;28;20426;-74
2023/07/23 00:34:59;;;;;;;5.85;4.22;;;;;;;19.84;61.11;99979.34;5015748;28;20103;-74
2023/07/23 00:37:28;;;;;;;7.03;4.20;;;;;;;19.82;61.15;99969.75;5026642;28;20050;-74
2023/07/23 00:39:57;;;;;;;10.30;4.05;;;;;;;19.66;59.37;99953.34;5017926;28;20045;-74
2023/07/23 00:42:25;;;;;;;5.45;4.10;;;;;;;19.80;59.23;99975.28;4989772;28;20042;-74
2023/07/23 00:44:53;;;;;;;6.13;3.90;;;;;;;19.77;59.23;99974.69;4997140;28;20049;-73
2023/07/23 00:47:23;;;;;;;10.68;4.65;;;;;;;19.76;59.21;99971.16;4997158;28;20506;-74
2023/07/23 00:49:51;;;;;;;7.38;4.72;;;;;;;19.70;58.85;99955.59;4997084;28;20465;-74
2023/07/23 00:52:19;;;;;;;6.32;4.47;;;;;;;19.69;58.25;99961.94;5015028;28;20043;-74
2023/07/23 00:54:47;;;;;;;7.53;4.40;;;;;;;19.68;59.22;99960.25;4981738;28;20054;-75
2023/07/23 00:57:17;;;;;;;5.55;3.95;;;;;;;19.63;59.08;99959.84;5024247;28;20042;-75
2023/07/23 00:59:45;;;;;;;5.88;4.40;;;;;;;19.57;59.31;99955.03;5012062;28;20050;-75
2023/07/23 01:02:14;;;;;;;9.48;4.57;;;;;;;19.53;58.70;99950.91;5001007;28;20496;-74
2023/07/23 01:04:43;;;;;;;6.50;4.30;;;;;;;19.54;58.53;99955.31;5019921;28;20531;-75
2023/07/23 01:07:12;;;;;;;7.37;4.13;;;;;;;19.53;58.33;99951.75;5017436;28;20073;-75
2023/07/23 01:09:40;;;;;;;5.43;4.20;;;;;;;19.48;59.07;99939.72;5000613;28;20480;-75
2023/07/23 01:12:09;;;;;;;7.68;4.18;;;;;;;19.53;58.25;99954.44;5007342;28;20046;-74
2023/07/23 01:14:38;;;;;;;6.97;4.18;;;;;;;19.53;58.41;99945.53;5023758;28;20050;-75
2023/07/23 01:17:08;;;;;;;6.72;4.15;;;;;;;19.41;59.40;99941.25;5031881;28;20051;-74
2023/07/23 01:19:37;;;;;;;6.03;4.00;;;;;;;19.30;60.49;99926.13;5011227;28;20046;-74
2023/07/23 01:22:07;;;;;;;6.07;4.35;;;;;;;19.25;61.07;99931.91;4988565;28;20054;-74
2023/07/23 01:24:35;;;;;;;8.45;4.65;;;;;;;19.24;61.32;99930.22;5009527;28;20046;-74
2023/07/23 01:27:05;;;;;;;5.03;3.58;;;;;;;19.26;61.17;99936.28;5015817;28;20409;-74
2023/07/23 01:29:33;;;;;;;5.50;4.00;;;;;;;19.20;61.83;99936.03;5014014;28;20048;-73
2023/07/23 01:32:01;;;;;;;5.25;4.07;;;;;;;19.13;62.87;99924.97;5002246;28;20041;-74
2023/07/23 01:34:31;;;;;;;6.72;3.83;;;;;;;19.14;62.73;99926.66;5031832;28;20124;-74
2023/07/23 01:36:59;;;;;;;6.72;4.20;;;;;;;19.07;63.01;99925.50;5016079;28;20050;-74
2023/07/23 01:39:28;;;;;;;6.03;3.60;;;;;;;19.00;63.15;99916.34;5017849;28;20045;-74
2023/07/23 01:41:56;;;;;;;6.03;3.90;;;;;;;18.93;63.94;99917.84;5003761;28;20126;-74
2023/07/23 01:44:24;;;;;;;8.07;4.00;;;;;;;18.87;64.40;99921.94;5024149;28;20034;-74
2023/07/23 01:46:52;;;;;;;8.68;4.05;;;;;;;18.79;65.51;99912.88;5028419;28;20050;-75
2023/07/23 01:49:20;;;;;;;8.30;4.15;;;;;;;18.71;66.81;99910.03;5019321;28;20041;-75
2023/07/23 01:51:48;;;;;;;8.93;4.65;;;;;;;18.61;67.71;99912.66;4995520;28;20120;-74
2023/07/23 01:54:16;;;;;;;7.22;4.00;;;;;;;18.63;69.05;99925.94;5014379;28;20064;-74
2023/07/23 01:56:47;;;;;;;9.07;4.53;;;;;;;18.58;70.08;99918.25;5016647;28;20125;-74
2023/07/23 01:59:15;;;;;;;7.57;4.20;;;;;;;18.48;71.60;99918.22;5015905;28;20048;-74
2023/07/23 02:01:43;;;;;;;8.05;4.50;;;;;;;18.37;72.92;99914.78;5026131;28;20165;-74
2023/07/23 02:04:12;;;;;;;8.38;4.35;;;;;;;18.24;74.36;99915.00;5016238;28;20041;-76
2023/07/23 02:06:40;;;;;;;7.80;4.95;;;;;;;18.16;76.24;99907.59;5021951;28;20056;-73
2023/07/23 02:09:09;;;;;;;8.00;4.50;;;;;;;18.09;77.26;99914.47;5018001;28;20434;-74
2023/07/23 02:11:37;;;;;;;8.18;4.65;;;;;;;18.01;79.42;99898.19;5011522;28;20292;-74
2023/07/23 02:14:08;;;;;;;6.40;4.43;;;;;;;17.95;80.20;99904.06;4997929;28;20421;-73
2023/07/23 02:16:37;;;;;;;8.07;4.53;;;;;;;17.84;81.61;99901.47;5019766;28;20436;-74
2023/07/23 02:19:06;;;;;;;6.82;4.70;;;;;;;17.82;83.43;99909.63;5014517;28;20045;-73
2023/07/23 02:21:34;;;;;;;6.85;4.43;;;;;;;17.68;84.68;99891.19;5011722;28;20046;-74
2023/07/23 02:24:03;;;;;;;7.78;5.00;;;;;;;17.68;85.61;99899.22;4991415;28;20527;-74
2023/07/23 02:26:31;;;;;;;6.72;4.43;;;;;;;17.52;86.64;99888.06;5011025;28;20057;-74
2023/07/23 02:28:59;;;;;;;7.53;4.82;;;;;;;17.60;87.34;99911.53;5031593;28;20505;-74
2023/07/23 02:31:28;;;;;;;8.18;4.50;;;;;;;17.43;88.09;99889.72;5015046;28;20533;-73
2023/07/23 02:33:57;;;;;;;6.57;4.60;;;;;;;17.49;89.08;99907.06;5026244;28;20053;-74
2023/07/23 02:36:25;;;;;;;7.65;4.70;;;;;;;17.50;89.28;99908.78;5013422;28;20042;-73
2023/07/23 02:38:52;;;;;;;6.63;4.70;;;;;;;17.51;89.55;99914.00;5015401;28;20521;-75
2023/07/23 02:41:20;;;;;;;8.93;5.15;;;;;;;17.45;89.41;99908.31;5016277;28;20060;-75
2023/07/23 02:43:49;;;;;;;8.70;4.72;;;;;;;17.41;89.67;99909.53;5002529;28;20057;-74
2023/07/23 02:46:16;;;;;;;6.22;4.40;;;;;;;17.39;90.06;99907.00;4998662;28;20073;-73
2023/07/23 02:48:46;;;;;;;9.23;4.60;;;;;;;17.35;90.86;99910.88;5034597;28;20060;-74
2023/07/23 02:51:14;;;;;;;7.45;4.50;;;;;;;17.33;91.55;99901.28;5019243;28;20050;-75
2023/07/23 02:53:42;;;;;;;7.95;4.45;;;;;;;17.30;91.81;99907.75;5004002;28;20034;-73
2023/07/23 02:56:10;;;;;;;8.85;4.15;;;;;;;17.30;92.07;99901.56;5016707;28;20307;-75
2023/07/23 02:58:38;;;;;;;8.00;4.55;;;;;;;17.31;92.98;99906.78;5020504;28;20050;-75
2023/07/23 03:01:06;;;;;;;6.95;4.55;;;;;;;17.36;92.56;99914.41;5036086;28;20433;-76
2023/07/23 03:03:35;;;;;;;7.00;4.30;;;;;;;17.39;92.03;99912.34;4987661;28;20046;-75
2023/07/23 03:06:06;;;;;;;7.38;4.78;;;;;;;17.43;89.66;99918.31;4998431;28;20069;-75
2023/07/23 03:08:36;;;;;;;7.65;4.22;;;;;;;17.51;85.00;99907.78;4989708;28;20122;-74
2023/07/23 03:11:06;;;;;;;6.70;4.03;;;;;;;17.64;81.68;99899.59;5014871;28;20049;-73
2023/07/23 03:13:35;;;;;;;5.57;3.83;;;;;;;17.65;80.41;99890.59;4997038;28;20052;-73
2023/07/23 03:16:03;;;;;;;6.80;3.90;;;;;;;17.79;78.51;99907.19;4996194;28;20409;-73
2023/07/23 03:18:33;;;;;;;7.13;4.32;;;;;;;17.81;77.46;99893.69;4995207;28;20046;-73
2023/07/23 03:21:01;;;;;;;5.80;4.45;;;;;;;17.87;77.10;99891.34;5026800;28;20080;-75
2023/07/23 03:23:30;;;;;;;6.53;3.45;;;;;;;17.90;75.86;99878.69;5000903;28;20104;-74
2023/07/23 03:25:58;;;;;;;7.43;4.10;;;;;;;18.04;74.94;99891.72;4997007;28;20050;-74
2023/07/23 03:28:28;;;;;;;4.97;3.85;;;;;;;18.14;74.18;99901.53;5012005;28;20125;-73
2023/07/23 03:30:58;;;;;;;6.43;3.97;;;;;;;18.13;74.23;99899.81;5016642;28;20092;-74
2023/07/23 03:33:27;;;;;;;6.20;4.28;;;;;;;18.06;74.01;99890.63;5004713;28;20120;-73
2023/07/23 03:35:54;;;;;;;5.40;4.13;;;;;;;18.13;74.44;99907.00;5013433;28;20046;-74
2023/07/23 03:38:24;;;;;;;5.32;3.83;;;;;;;18.11;74.66;99903.59;5016507;28;20120;-74
2023/07/23 03:40:57;;;;;;;5.47;4.30;;;;;;;18.09;74.26;99901.09;5022592;28;20110;-74
2023/07/23 03:43:26;;;;;;;7.60;4.15;;;;;;;18.07;74.49;99899.50;4986799;28;20045;-75
2023/07/23 03:45:54;;;;;;;7.65;4.25;;;;;;;18.08;74.75;99901.22;4997928;28;20517;-75
2023/07/23 03:48:22;;;;;;;6.50;4.10;;;;;;;18.13;74.29;99896.28;5014985;28;20498;-73
2023/07/23 03:50:50;;;;;;;7.40;4.35;;;;;;;18.17;73.68;99897.72;5014326;28;20084;-73
2023/07/23 03:53:18;;;;;;;7.30;3.88;;;;;;;18.16;73.93;99894.19;4999965;28;20042;-72
2023/07/23 03:55:46;;;;;;;9.98;4.20;;;;;;;18.17;74.41;99897.72;5015662;28;20045;-74
2023/07/23 03:58:18;;;;;;;6.55;4.03;;;;;;;18.17;73.91;99889.69;4991934;28;20046;-72
2023/07/23 04:00:46;;;;;;;8.63;4.15;;;;;;;18.14;74.39;99884.59;5013857;28;20537;-74
2023/07/23 04:03:14;;;;;;;6.15;4.50;;;;;;;18.23;74.35;99894.53;4986841;28;20080;-73
2023/07/23 04:05:42;;;;;;;5.38;4.10;;;;;;;18.17;73.96;99887.88;5013864;28;20057;-74
2023/07/23 04:08:11;;;;;;;4.95;4.25;;;;;;;18.05;74.43;99872.84;5014193;28;20088;-74
2023/07/23 04:10:41;;;;;;;6.38;4.47;;;;;;;18.04;75.39;99884.53;4988650;28;20736;-74
2023/07/23 04:13:09;;;;;;;8.65;4.43;;;;;;;18.03;75.31;99895.41;5001297;28;20052;-76
2023/07/23 04:15:38;;;;;;;6.68;4.70;;;;;;;17.92;76.36;99890.97;5013705;28;20042;-75
2023/07/23 04:18:15;;;;;;;7.87;5.07;;;;;;;17.90;77.15;99892.06;5030175;28;20049;-75
2023/07/23 04:20:42;;;;;;;8.45;4.88;;;;;;;17.91;77.86;99891.94;5009502;28;20133;-75
2023/07/23 04:23:12;;;;;;;6.68;4.00;;;;;;;17.93;77.87;99895.34;5018780;28;20522;-75
2023/07/23 04:25:40;;;;;;;9.10;5.07;;;;;;;17.88;77.81;99882.34;4999716;28;20052;-75
2023/07/23 04:28:08;;;;;;;7.40;4.35;;;;;;;17.90;79.19;99884.03;5019350;28;20050;-74
2023/07/23 04:30:38;;;;;;;7.18;4.43;;;;;;;18.03;78.41;99893.56;5013674;28;20048;-75
2023/07/23 04:33:06;;;;;;;6.85;4.57;;;;;;;18.12;77.59;99895.44;5004362;28;20255;-74
2023/07/23 04:35:34;;;;;;;6.47;4.85;;;;;;;18.11;78.21;99887.53;5010908;28;20073;-74
2023/07/23 04:38:02;;;;;;;5.75;4.38;;;;;;;18.17;77.89;99887.88;5017352;28;20048;-75
2023/07/23 04:40:34;;;;;;;8.48;4.90;;;;;;;18.29;77.19;99898.50;5012062;28;20052;-75
2023/07/23 04:43:03;;;;;;;8.43;5.05;;;;;;;18.37;77.14;99901.38;5017846;28;20057;-75
2023/07/23 04:45:31;;;;;;;9.20;4.80;;;;;;;18.43;77.68;99900.81;5007480;28;20064;-75
2023/07/23 04:48:01;;;;;;;9.05;5.35;;;;;;;18.51;76.15;99901.88;5008462;28;20053;-74
2023/07/23 04:50:29;;;;;;;8.20;4.80;;;;;;;18.56;75.33;99901.47;5008281;28;20046;-74
2023/07/23 04:52:59;;;;;;;7.03;4.93;;;;;;;18.50;75.46;99884.06;5009031;28;20046;-74
2023/07/23 04:55:27;;;;;;;8.10;5.05;;;;;;;18.63;74.98;99901.78;5026636;28;20496;-75
2023/07/23 04:57:55;;;;;;;7.03;5.00;;;;;;;18.63;75.54;99899.97;5013590;28;20053;-75
2023/07/23 05:00:24;;;;;;;8.38;5.03;;;;;;;18.67;75.14;99905.91;5013853;28;20046;-75
2023/07/23 05:02:52;;;;;;;6.43;4.75;;;;;;;18.67;75.41;99903.22;5008345;28;20150;-75
2023/07/23 05:05:26;;;;;;;9.20;4.90;;;;;;;18.65;75.23;99906.03;5007854;28;20087;-75
2023/07/23 05:07:53;;;;;;;6.88;5.10;;;;;;;18.64;76.22;99907.03;5024325;28;20084;-74
2023/07/23 05:10:22;;;;;;;6.53;5.00;;;;;;;18.55;78.29;99897.94;5010634;28;20054;-74
2023/07/23 05:12:51;;;;;;;6.50;4.82;;;;;;;18.60;78.41;99902.06;4995058;28;20054;-77
2023/07/23 05:15:20;;;;;;;7.95;5.38;;;;;;;18.52;77.50;99892.00;5006354;28;20045;-75
2023/07/23 05:17:47;;;;;;;6.45;5.03;;;;;;;18.57;78.36;99889.75;5033721;28;20042;-74
2023/07/23 05:20:18;;;;;;;7.22;5.20;;;;;;;18.67;78.61;99903.22;5011666;28;20724;-75
2023/07/23 05:22:47;;;;;;;;;;;;;;;18.73;79.03;99908.06;4994294;28;20085;-75
2023/07/23 05:25:16;;;;;;;8.23;5.10;;;;;;;18.77;77.26;99885.31;5009059;28;19928;-74
2023/07/23 05:27:44;;;;;;;7.90;5.18;;;;;;;18.81;76.44;99905.53;5016552;28;20068;-74
2023/07/23 05:30:14;;;;;;;8.07;4.97;;;;;;;18.77;77.17;99902.28;4995452;28;20057;-74
2023/07/23 05:32:42;;;;;;;8.68;5.35;;;;;;;18.75;76.83;99903.38;5005318;28;20053;-74
2023/07/23 05:35:10;;;;;;;7.35;4.97;;;;;;;18.75;77.14;99898.03;5006134;28;20100;-74
2023/07/23 05:37:38;;;;;;;7.97;4.97;;;;;;;18.84;76.34;99900.75;5011620;28;20125;-74
2023/07/23 05:40:10;;;;;;;6.32;5.10;;;;;;;18.89;77.15;99901.16;5025469;28;20050;-74
2023/07/23 05:42:39;;;;;;;5.93;4.57;;;;;;;18.95;75.32;99902.47;5007404;28;20529;-74
2023/07/23 05:45:09;;;;;;;9.13;5.53;;;;;;;18.97;76.03;99897.81;4999432;28;20045;-75
2023/07/23 05:47:37;;;;;;;5.57;4.35;;;;;;;19.03;75.75;99896.44;4994310;28;20569;-74
2023/07/23 05:50:06;;;;;;;6.30;5.40;;;;;;;19.08;74.21;99900.38;4986695;28;20061;-74
2023/07/23 05:52:34;;;;;;;8.88;5.70;;;;;;;18.94;74.11;99900.75;5004819;28;20089;-75
2023/07/23 05:55:03;;;;;;;8.60;4.72;;;;;;;19.00;74.62;99910.97;4985617;28;20046;-74
2023/07/23 05:57:33;;;;;;;11.35;6.20;;;;;;;19.03;74.96;99886.53;5013119;28;20540;-75
2023/07/23 06:00:04;;;;;;;10.15;7.05;;;;;;;19.18;72.88;99895.91;5022711;28;20141;-75
2023/07/23 06:02:52;;;;;;;8.13;5.15;;;;;;;19.19;72.83;99896.75;4979888;28;20042;-75
2023/07/23 06:05:23;;;;;;;;;;;;;;;19.14;73.75;99899.84;4985005;28;20043;-74
2023/07/23 06:07:51;;;;;;;8.02;5.30;;;;;;;19.08;73.55;99899.53;4995005;28;20326;-77
2023/07/23 06:10:19;;;;;;;7.13;5.07;;;;;;;19.07;74.83;99885.25;4973939;28;20101;-76
2023/07/23 06:12:48;;;;;;;7.45;5.05;;;;;;;19.17;73.05;99902.25;4978792;28;20624;-76
2023/07/23 06:15:16;;;;;;;9.35;5.55;;;;;;;19.12;73.67;99885.69;4952999;28;20081;-76
2023/07/23 06:17:44;;;;;;;6.28;4.85;;;;;;;19.31;73.09;99908.19;4981257;28;20146;-76
2023/07/23 06:20:13;;;;;;;7.60;5.20;;;;;;;19.54;70.73;99902.44;4977964;28;20077;-75
2023/07/23 06:22:41;;;;;;;6.75;4.78;;;;;;;19.91;69.13;99901.72;4997878;28;20166;-76
2023/07/23 06:25:11;;;;;;;6.13;4.55;;;;;;;20.27;66.65;99890.19;4971956;28;20118;-75
2023/07/23 06:27:41;;;;;;;8.82;4.50;;;;;;;20.62;65.08;99902.97;4994317;28;20133;-75
2023/07/23 06:30:13;;;;;;;5.25;4.50;;;;;;;20.77;63.70;99894.44;4979382;28;20062;-74
2023/07/23 06:32:44;;;;;;;5.65;4.47;;;;;;;21.09;60.99;99891.28;4968980;28;20047;-74
2023/07/23 06:35:16;;;;;;;7.78;4.50;;;;;;;21.55;58.94;99887.56;5008296;28;20049;-74
2023/07/23 06:37:44;;;;;;;7.80;4.95;;;;;;;21.93;57.18;99886.34;5021312;28;20110;-74
2023/07/23 06:40:12;;;;;;;5.82;4.15;;;;;;;22.39;56.10;99888.72;5022518;28;20462;-74
2023/07/23 06:42:40;;;;;;;7.30;4.80;;;;;;;22.39;54.62;99888.72;5033810;28;20104;-74
2023/07/23 06:45:10;;;;;;;6.28;4.43;;;;;;;22.25;55.36;99886.59;5009651;28;20055;-74
2023/07/23 06:47:39;;;;;;;5.13;4.22;;;;;;;22.14;56.06;99883.34;5016253;28;20491;-74
2023/07/23 06:50:08;;;;;;;8.27;4.25;;;;;;;22.02;57.00;99880.91;5037193;28;20136;-74
2023/07/23 06:52:39;;;;;;;5.82;3.92;;;;;;;21.90;57.05;99883.97;5004681;28;20067;-76
2023/07/23 06:55:10;;;;;;;8.57;3.80;;;;;;;21.96;57.74;99886.88;5006150;28;20057;-75
2023/07/23 06:57:39;;;;;;;6.05;4.10;;;;;;;22.21;58.01;99889.78;5014829;28;20053;-74
2023/07/23 07:00:08;;;;;;;8.93;3.72;;;;;;;22.19;55.27;99889.13;5031658;28;20058;-77
2023/07/23 07:02:37;;;;;;;4.88;3.90;;;;;;;22.53;56.66;99889.97;5018879;28;20045;-74
2023/07/23 07:05:07;;;;;;;6.47;3.58;;;;;;;23.01;53.77;99883.13;5010913;28;20042;-75
2023/07/23 07:07:35;;;;;;;4.43;3.60;;;;;;;23.37;51.08;99872.91;5000685;28;20056;-75
2023/07/23 07:10:04;;;;;;;5.18;3.85;;;;;;;23.19;52.03;99862.22;5011652;28;20105;-76
2023/07/23 07:12:33;;;;;;;4.60;3.20;;;;;;;23.11;52.24;99862.22;4998536;28;20052;-75
2023/07/23 07:15:01;;;;;;;4.93;3.60;;;;;;;23.48;53.00;99864.47;4999981;28;20074;-75
2023/07/23 07:17:30;;;;;;;5.43;3.53;;;;;;;23.81;51.04;99859.94;5015318;28;20401;-74
2023/07/23 07:20:01;;;;;;;4.63;3.55;;;;;;;23.73;50.22;99852.69;4997633;28;20041;-75
2023/07/23 07:22:30;;;;;;;;;;;;;;;23.69;50.45;99856.75;5012864;28;20046;-74
2023/07/23 07:25:00;;;;;;;7.75;3.40;;;;;;;23.63;49.77;99843.06;5014093;28;19932;-76
2023/07/23 07:27:30;;;;;;;5.53;3.30;;;;;;;23.62;50.78;99858.41;5010839;28;20129;-75
2023/07/23 07:29:58;;;;;;;4.30;3.05;;;;;;;23.85;49.81;99855.06;5013899;28;20142;-75
2023/07/23 07:32:28;;;;;;;5.57;3.53;;;;;;;23.87;49.08;99859.28;5013320;28;20132;-77
2023/07/23 07:34:56;;;;;;;5.43;2.78;;;;;;;23.82;47.55;99871.59;4985319;28;20037;-75
2023/07/23 07:37:25;;;;;;;4.82;2.72;;;;;;;23.93;47.81;99872.09;5014470;28;20053;-75
2023/07/23 07:39:55;;;;;;;3.92;2.30;;;;;;;24.26;47.50;99877.50;5013727;28;20054;-76
2023/07/23 07:42:23;;;;;;;3.75;2.70;;;;;;;24.34;46.29;99869.38;5012202;28;20100;-75
2023/07/23 07:44:51;;;;;;;3.92;2.30;;;;;;;24.73;45.10;99875.66;5005444;28;21132;-77
2023/07/23 07:47:19;;;;;;;5.55;2.40;;;;;;;24.91;44.63;99874.56;5015465;28;20494;-77
2023/07/23 07:49:47;;;;;;;3.55;2.50;;;;;;;24.77;45.30;99879.72;5016099;28;20111;-77
2023/07/23 07:52:15;;;;;;;3.90;2.53;;;;;;;24.63;45.63;99874.19;4999568;28;20049;-75
2023/07/23 07:54:43;;;;;;;5.30;2.60;;;;;;;24.60;45.54;99886.19;5008413;28;20050;-75
2023/07/23 07:57:14;;;;;;;3.95;2.40;;;;;;;24.34;45.95;99877.50;4989489;28;20053;-75
2023/07/23 07:59:42;;;;;;;;;;;;;;;24.09;46.56;99885.59;5012382;28;20053;-74
2023/07/23 08:02:11;;;;;;;4.72;2.60;;;;;;;23.82;47.68;99882.41;4997527;28;19944;-74
2023/07/23 08:04:39;;;;;;;3.08;1.95;;;;;;;23.51;48.38;99882.22;4987439;28;20057;-74
2023/07/23 08:07:08;;;;;;;4.47;2.45;;;;;;;23.08;50.02;99868.81;5006332;28;20077;-75
2023/07/23 08:09:38;;;;;;;3.23;2.47;;;;;;;23.08;50.13;99873.34;5013653;28;20045;-77
2023/07/23 08:12:09;;;;;;;4.97;2.53;;;;;;;23.20;49.95;99873.88;5025885;28;20540;-74
2023/07/23 08:14:40;;;;;;;4.87;2.27;;;;;;;22.98;51.20;99870.78;5009181;28;20469;-74
2023/07/23 08:17:10;;;;;;;4.65;2.20;;;;;;;22.74;51.59;99876.91;5022106;28;20567;-75
2023/07/23 08:19:38;;;;;;;3.80;2.17;;;;;;;22.90;51.31;99869.91;5013823;28;20508;-75
2023/07/23 08:22:07;;;;;;;3.15;1.98;;;;;;;23.03;50.41;99879.25;5003391;28;20041;-75
2023/07/23 08:24:36;;;;;;;2.80;1.90;;;;;;;22.92;50.56;99870.59;4998671;28;20042;-76
2023/07/23 08:27:08;;;;;;;5.30;1.90;;;;;;;22.83;51.00;99860.78;4999835;28;20049;-75
2023/07/23 08:29:40;;;;;;;4.30;1.85;;;;;;;22.78;51.22;99874.78;5011395;28;20386;-75
2023/07/23 08:32:12;;;;;;;3.72;2.30;;;;;;;22.58;51.48;99881.41;5012465;28;20054;-74
2023/07/23 08:34:41;;;;;;;6.18;2.38;;;;;;;22.50;52.45;99887.63;5009202;28;20576;-74
2023/07/23 08:37:12;;;;;;;2.63;2.00;;;;;;;22.39;53.24;99877.06;5004281;28;20138;-73
2023/07/23 08:39:41;;;;;;;;;;;;;;;22.43;53.43;99873.06;4995309;28;20052;-74
2023/07/23 08:42:47;;;;;;;4.85;2.20;;;;;;;22.27;53.57;99871.13;5005086;28;19956;-74
2023/07/23 08:45:47;;;;;;;3.25;2.25;;;;;;;22.58;52.99;99884.09;5015930;28;20072;-74
2023/07/23 08:48:16;;;;;;;4.97;2.13;;;;;;;22.82;52.69;99891.50;5012199;28;20050;-74
2023/07/23 08:50:45;;;;;;;;;;;;;;;23.22;51.93;99901.59;5015067;28;20255;-74
2023/07/23 08:53:16;;;;;;;3.35;2.10;;;;;;;23.71;50.27;99910.66;5011409;28;19960;-75
2023/07/23 08:55:48;;;;;;;4.55;2.00;;;;;;;24.09;48.78;99909.09;5002553;28;20054;-75
2023/07/23 08:58:20;;;;;;;2.25;1.60;;;;;;;24.28;47.89;99907.94;5013784;28;20062;-74
2023/07/23 09:00:49;;;;;;;2.47;1.75;;;;;;;24.18;47.89;99894.56;5014805;28;20465;-74
2023/07/23 09:03:20;;;;;;;3.33;1.80;;;;;;;23.94;48.78;99892.72;5014575;28;20045;-74
2023/07/23 09:05:49;;;;;;;1.52;1.42;;;;;;;23.40;50.19;99902.31;4998433;28;20046;-76
2023/07/23 09:08:21;;;;;;;3.30;1.90;;;;;;;22.98;51.87;99892.38;5010894;28;20046;-74
2023/07/23 09:10:49;;;;;;;3.28;1.92;;;;;;;22.92;52.99;99871.47;5014096;28;20058;-74
2023/07/23 09:13:17;;;;;;;2.38;1.67;;;;;;;22.94;52.47;99877.53;5015654;28;20045;-75
2023/07/23 09:15:54;;;;;;;3.35;1.92;;;;;;;22.95;52.03;99881.09;4997413;28;20532;-74
2023/07/23 09:18:25;;;;;;;2.38;1.77;;;;;;;23.18;51.92;99878.59;5004986;28;20081;-74
2023/07/23 09:20:53;;;;;;;2.35;1.92;;;;;;;23.28;51.15;99885.56;5012580;28;20121;-74
2023/07/23 09:23:21;;;;;;;3.50;1.63;;;;;;;23.68;49.93;99892.91;5013676;28;20042;-74
2023/07/23 09:25:49;;;;;;;3.92;1.73;;;;;;;23.97;49.15;99896.94;5004205;28;21278;-74
2023/07/23 09:28:21;;;;;;;1.88;1.67;;;;;;;23.85;49.03;99901.03;5011445;28;20048;-74
2023/07/23 09:30:53;;;;;;;2.03;1.80;;;;;;;23.85;49.60;99892.91;5026147;28;20089;-74
2023/07/23 09:33:21;;;;;;;4.25;1.73;;;;;;;24.22;48.63;99886.97;5009430;28;20421;-73
2023/07/23 09:35:51;;;;;;;2.30;1.40;;;;;;;24.56;47.12;99895.69;4999912;28;20074;-74
2023/07/23 09:38:24;;;;;;;;;;;;;;;24.57;46.65;99897.38;5028097;28;20131;-75
2023/07/23 09:40:54;;;;;;;2.22;1.60;;;;;;;23.96;47.07;99904.22;5015012;28;20020;-74
2023/07/23 09:43:26;;;;;;;2.80;1.70;;;;;;;23.50;48.63;99902.13;5007332;28;20077;-75
2023/07/23 09:45:55;;;;;;;1.77;1.67;;;;;;;23.43;48.61;99905.53;5007485;28;20549;-75
2023/07/23 09:48:24;;;;;;;2.45;1.88;;;;;;;23.22;49.54;99913.22;5001162;28;20069;-75
2023/07/23 09:50:58;;;;;;;2.30;1.80;;;;;;;23.22;50.21;99907.84;5014695;28;20501;-75
2023/07/23 09:53:29;;;;;;;2.80;1.75;;;;;;;23.07;50.88;99899.53;5014008;28;20543;-74
2023/07/23 09:56:00;;;;;;;3.45;1.75;;;;;;;23.06;52.54;99900.53;5007081;28;20068;-73
2023/07/23 09:58:31;;;;;;;2.40;1.85;;;;;;;23.20;51.66;99899.03;5032691;28;20049;-74
2023/07/23 10:01:01;;;;;;;2.10;1.77;;;;;;;23.15;51.27;99901.38;5015456;28;20053;-74
2023/07/23 10:03:31;;;;;;;2.97;2.08;;;;;;;23.04;52.02;99904.41;5016676;28;20041;-75
2023/07/23 10:05:59;;;;;;;2.28;1.83;;;;;;;22.79;53.76;99900.78;5002201;28;20046;-75
2023/07/23 10:08:30;;;;;;;3.63;1.92;;;;;;;22.67;54.07;99902.00;5025606;28;20054;-75
2023/07/23 10:11:02;;;;;;;3.20;1.95;;;;;;;22.46;55.68;99894.34;5026244;28;20057;-75
2023/07/23 10:13:30;;;;;;;2.22;1.80;;;;;;;22.55;55.61;99906.00;4999714;28;20133;-74
2023/07/23 10:16:01;;;;;;;2.58;1.58;;;;;;;22.36;54.06;99912.47;4990556;28;20038;-75
2023/07/23 10:18:32;;;;;;;3.35;1.88;;;;;;;22.26;53.80;99898.25;4992554;28;20096;-73
2023/07/23 10:21:00;;;;;;;2.13;1.70;;;;;;;22.45;54.41;99895.34;4981961;28;20059;-76
2023/07/23 10:23:28;;;;;;;4.57;1.83;;;;;;;22.68;53.37;99891.06;5015416;28;20776;-76
2023/07/23 10:26:24;;;;;;;2.00;1.40;;;;;;;22.91;51.74;99895.91;4988120;28;20521;-75
2023/07/23 10:28:58;;;;;;;2.65;1.73;;;;;;;23.05;51.00;99892.59;5024362;28;20042;-76
2023/07/23 10:31:29;;;;;;;2.42;1.52;;;;;;;23.17;51.06;99901.22;5021119;28;20041;-75
2023/07/23 10:33:58;;;;;;;2.72;1.77;;;;;;;23.37;51.26;99886.41;4996435;28;20428;-75
2023/07/23 10:36:27;;;;;;;2.00;1.80;;;;;;;23.77;51.19;99886.47;4999999;28;20049;-75
2023/07/23 10:39:18;;;;;;;4.70;1.70;;;;;;;24.21;50.00;99887.97;5017702;28;20045;-76
2023/07/23 10:41:53;;;;;;;2.50;1.83;;;;;;;24.23;48.75;99881.41;5015331;28;20050;-74
2023/07/23 10:44:22;;;;;;;2.40;1.52;;;;;;;24.25;48.88;99868.53;5017635;28;20140;-74
2023/07/23 10:46:52;;;;;;;3.20;1.70;;;;;;;24.31;48.87;99867.84;5008185;28;20042;-76
2023/07/23 10:49:22;;;;;;;1.73;1.50;;;;;;;24.47;47.85;99857.00;4980407;28;20461;-76
2023/07/23 10:51:53;;;;;;;2.17;1.40;;;;;;;24.64;47.30;99862.34;5017002;28;20458;-74
2023/07/23 10:54:23;;;;;;;1.83;1.50;;;;;;;24.65;46.96;99862.16;5014108;28;20038;-76
2023/07/23 10:56:51;;;;;;;2.70;1.50;;;;;;;24.54;47.78;99851.72;5005769;28;20054;-75
2023/07/23 10:59:21;;;;;;;4.68;1.55;;;;;;;24.06;47.69;99858.94;5016840;28;20375;-74
2023/07/23 11:01:52;;;;;;;1.58;1.40;;;;;;;24.05;48.31;99850.97;5022744;28;20061;-73
2023/07/23 11:04:24;;;;;;;;;;;;;;;24.25;48.03;99851.47;5032018;28;20065;-75
2023/07/23 11:07:02;;;;;;;2.63;1.45;;;;;;;24.29;47.31;99844.69;5015032;28;19937;-75
2023/07/23 11:09:32;;;;;;;2.88;1.50;;;;;;;24.49;46.78;99840.56;5015891;28;20153;-75
2023/07/23 11:12:05;;;;;;;1.80;1.40;;;;;;;24.93;45.80;99834.63;5035108;28;20069;-75
2023/07/23 11:14:35;;;;;;;1.60;1.40;;;;;;;25.27;44.75;99826.97;5019186;28;20045;-74
2023/07/23 11:17:05;;;;;;;2.20;1.70;;;;;;;25.41;44.29;99817.22;5002685;28;20102;-74
2023/07/23 11:19:34;;;;;;;;;;;;;;;25.04;45.45;99821.53;5013034;28;20046;-74
2023/07/23 11:22:03;;;;;;;1.67;1.55;;;;;;;25.05;45.85;99820.50;5021274;28;19932;-74
2023/07/23 11:24:33;;;;;;;6.13;1.50;;;;;;;25.03;44.79;99813.59;5015972;28;20046;-74
2023/07/23 11:27:03;;;;;;;3.08;1.60;;;;;;;24.83;44.52;99824.84;4984227;28;20046;-74
2023/07/23 11:29:33;;;;;;;2.67;1.85;;;;;;;24.75;44.76;99816.75;5001611;28;20534;-75
2023/07/23 11:32:04;;;;;;;2.97;1.80;;;;;;;24.97;44.87;99808.91;4997887;28;20144;-74
2023/07/23 11:34:33;;;;;;;3.28;1.60;;;;;;;25.26;44.05;99800.91;5009677;28;20108;-75
2023/07/23 11:37:02;;;;;;;3.60;1.67;;;;;;;25.53;42.43;99804.91;4998606;28;20042;-74
2023/07/23 11:39:30;;;;;;;4.90;1.60;;;;;;;25.86;42.41;99808.22;5015793;28;20490;-74
2023/07/23 11:41:59;;;;;;;4.30;1.58;;;;;;;26.12;41.65;99803.22;5017003;28;20056;-75
2023/07/23 11:44:27;;;;;;;2.22;1.65;;;;;;;25.97;42.18;99791.50;5016634;28;20136;-74
2023/07/23 11:47:01;;;;;;;1.90;1.55;;;;;;;26.36;42.29;99798.53;5002132;28;20147;-74